Terminal Aerodrome Forecast
Issued by NWS

Home | Current Version | Previous Version | Graphics & Text | Print | Product List | Glossary On
Versions: 1 2 3 4 5 6 7 8 9 10 11 12 13 14 15 16 17 18 19 20 21 22 23 24 25
000
FTUS42 KMHX 150555
TAFPGV
TAF
KPGV 150555Z 1506/1606 22009KT P6SM BKN090
     FM151500 24013G21KT P6SM SCT090
     FM152300 23011G19KT P6SM SCT130
      AMD LTD TO CLD VIS AND WIND=

USA.gov is the U.S. government's official web portal to all federal, state and local government web resources and services.